^^
Station Historical Data
Daily Summary for April 25, 2017 Units:  English    Metric   Both
« Previous Day
Next Day »
Daily Weekly Monthly Yearly Custom
  High: Low: Average:
Temperature: 56.5 °F 50.6 °F 53.4 °F
Dew Point: 53.1 °F 39.6 °F 48.5 °F
Humidity: 95 % 62 % 84 %
Wind Speed: 9.7 mph 0.0 mph 3.7 mph
Wind Gust: 16.1 mph - -
Wind:- - NE
Pressure: 30.09 in 29.82 in -
Precipitation: 0.29 in    
Historical Graphs
 
 
Tabular Data for April 25, 2017
Time Temperature Dew Point Pressure Wind Wind Speed Wind Gust Humidity Rainfall Rate (Hourly) solar Conditions
00:03 52.4 °F 39.8 °F 30.09 in NNE 1.2 mph 4.0 mph 62 % 0.00 in 0.0 W/m2 RA
00:08 52.4 °F 39.8 °F 30.08 in NNE 2.1 mph 4.0 mph 62 % 0.00 in 0.0 W/m2 RA
00:09 52.3 °F 40.1 °F 30.08 in NE 0.1 mph 4.6 mph 63 % 0.00 in 0.0 W/m2 RA
00:14 52.2 °F 39.6 °F 30.08 in NE 1.6 mph 2.3 mph 62 % 0.00 in 0.0 W/m2 CLR
00:19 52.2 °F 39.6 °F 30.08 in East 2.0 mph 3.5 mph 62 % 0.00 in 0.0 W/m2 CLR
00:24 52.3 °F 39.7 °F 30.08 in East 1.9 mph 3.5 mph 62 % 0.00 in 0.0 W/m2 CLR
00:29 52.3 °F 40.1 °F 30.08 in East 0.7 mph 4.0 mph 63 % 0.00 in 0.0 W/m2 CLR
00:34 52.3 °F 40.1 °F 30.09 in NE 2.7 mph 4.0 mph 63 % 0.00 in 0.0 W/m2 CLR
00:39 52.3 °F 40.1 °F 30.09 in NE 0.6 mph 3.5 mph 63 % 0.00 in 0.0 W/m2 CLR
00:44 52.3 °F 40.1 °F 30.08 in ENE 1.5 mph 3.5 mph 63 % 0.00 in 0.0 W/m2 CLR
00:49 52.3 °F 40.1 °F 30.08 in NE 2.4 mph 2.4 mph 63 % 0.00 in 0.0 W/m2 CLR
00:54 52.3 °F 40.5 °F 30.08 in ENE 2.2 mph 3.5 mph 64 % 0.00 in 0.0 W/m2 CLR
00:59 52.3 °F 40.5 °F 30.08 in ENE 2.3 mph 5.8 mph 64 % 0.00 in 0.0 W/m2 CLR
01:04 52.2 °F 40.8 °F 30.08 in ENE 3.7 mph 3.7 mph 65 % 0.00 in 0.0 W/m2 CLR
01:09 52.2 °F 40.8 °F 30.08 in NE 0.3 mph 3.5 mph 65 % 0.00 in 0.0 W/m2 CLR
01:14 52.1 °F 41.1 °F 30.07 in NE 0.5 mph 3.5 mph 66 % 0.00 in 0.0 W/m2 CLR
01:19 52.1 °F 41.5 °F 30.07 in NE 0.8 mph 3.5 mph 67 % 0.00 in 0.0 W/m2 CLR
01:24 52.1 °F 41.5 °F 30.07 in ENE 1.1 mph 3.5 mph 67 % 0.00 in 0.0 W/m2 CLR
01:25 52.1 °F 41.5 °F 30.07 in ENE 1.1 mph 3.5 mph 67 % 0.00 in 0.0 W/m2 CLR
01:30 52.1 °F 41.5 °F 30.07 in NE 2.4 mph 3.5 mph 67 % 0.00 in 0.0 W/m2 CLR
01:35 52.1 °F 41.5 °F 30.07 in NE 1.6 mph 4.6 mph 67 % 0.00 in 0.0 W/m2 CLR
01:40 52.1 °F 41.9 °F 30.07 in NE 2.5 mph 3.5 mph 68 % 0.00 in 0.0 W/m2 CLR
01:45 52.0 °F 41.8 °F 30.06 in NE 3.0 mph 4.6 mph 68 % 0.00 in 0.0 W/m2 CLR
01:50 52.0 °F 41.8 °F 30.06 in NNE 4.8 mph 9.2 mph 68 % 0.00 in 0.0 W/m2 CLR
01:55 52.0 °F 41.8 °F 30.06 in NE 0.6 mph 2.3 mph 68 % 0.00 in 0.0 W/m2 CLR
02:00 52.0 °F 41.8 °F 30.06 in NE 2.4 mph 5.0 mph 68 % 0.00 in 0.0 W/m2 CLR
02:05 52.0 °F 41.8 °F 30.06 in NE 3.8 mph 5.8 mph 68 % 0.00 in 0.0 W/m2 CLR
02:10 52.0 °F 41.8 °F 30.06 in NE 1.7 mph 3.5 mph 68 % 0.00 in 0.0 W/m2 CLR
02:15 52.0 °F 42.1 °F 30.05 in NE 1.0 mph 3.5 mph 69 % 0.00 in 0.0 W/m2 CLR
02:20 52.0 °F 42.1 °F 30.05 in NE 3.1 mph 8.1 mph 69 % 0.00 in 0.0 W/m2 CLR
02:25 51.9 °F 42.4 °F 30.05 in Calm   1.2 mph 70 % 0.00 in 0.0 W/m2 CLR
02:30 51.9 °F 42.4 °F 30.05 in NE 2.6 mph 4.6 mph 70 % 0.00 in 0.0 W/m2 CLR
02:35 51.9 °F 42.4 °F 30.05 in NNE 2.1 mph 5.0 mph 70 % 0.00 in 0.0 W/m2 CLR
02:40 51.9 °F 42.4 °F 30.04 in NNE 2.3 mph 4.6 mph 70 % 0.00 in 0.0 W/m2 CLR
02:45 51.9 °F 42.0 °F 30.04 in NE 2.2 mph 4.6 mph 69 % 0.00 in 0.0 W/m2 CLR
02:50 51.9 °F 42.0 °F 30.04 in NE 1.2 mph 3.5 mph 69 % 0.00 in 0.0 W/m2 CLR
02:55 51.9 °F 42.0 °F 30.04 in ENE 2.2 mph 3.5 mph 69 % 0.00 in 0.0 W/m2 CLR
03:00 52.0 °F 42.1 °F 30.04 in NE 3.6 mph 8.1 mph 69 % 0.00 in 0.0 W/m2 CLR
03:05 52.0 °F 41.8 °F 30.04 in East 1.4 mph 3.5 mph 68 % 0.00 in 0.0 W/m2 CLR
03:10 52.1 °F 41.9 °F 30.04 in Calm   1.2 mph 68 % 0.00 in 0.0 W/m2 CLR
03:15 52.1 °F 41.9 °F 30.04 in NE 0.9 mph 2.3 mph 68 % 0.00 in 0.0 W/m2 CLR
03:20 52.2 °F 42.0 °F 30.04 in NE 1.3 mph 3.5 mph 68 % 0.00 in 0.0 W/m2 CLR
03:25 52.2 °F 42.0 °F 30.04 in NE 1.2 mph 3.0 mph 68 % 0.00 in 0.0 W/m2 CLR
03:30 52.2 °F 42.0 °F 30.04 in ENE 2.6 mph 3.5 mph 68 % 0.00 in 0.0 W/m2 CLR
03:35 52.2 °F 42.0 °F 30.03 in NE 3.3 mph 6.0 mph 68 % 0.00 in 0.0 W/m2 CLR
03:40 52.3 °F 42.0 °F 30.03 in NNE 3.3 mph 5.0 mph 68 % 0.00 in 0.0 W/m2 CLR
03:45 52.4 °F 42.1 °F 30.03 in NE 2.4 mph 4.6 mph 68 % 0.00 in 0.0 W/m2 CLR
03:50 52.4 °F 42.1 °F 30.03 in NE 2.6 mph 4.6 mph 68 % 0.00 in 0.0 W/m2 CLR
03:55 52.4 °F 42.5 °F 30.03 in ENE 0.2 mph 2.0 mph 69 % 0.00 in 0.0 W/m2 CLR
04:00 52.5 °F 42.2 °F 30.03 in NE 1.8 mph 3.5 mph 68 % 0.00 in 0.0 W/m2 CLR
04:05 52.6 °F 42.7 °F 30.03 in NNE 1.0 mph 3.5 mph 69 % 0.00 in 0.0 W/m2 CLR
04:10 52.6 °F 42.7 °F 30.03 in NE 5.6 mph 10.4 mph 69 % 0.00 in 0.0 W/m2 CLR
04:15 52.6 °F 42.7 °F 30.03 in NNE 3.2 mph 6.0 mph 69 % 0.00 in 0.0 W/m2 CLR
04:20 52.6 °F 43.1 °F 30.03 in NE 0.3 mph 2.3 mph 70 % 0.00 in 0.0 W/m2 CLR
04:25 52.6 °F 43.5 °F 30.03 in ENE 2.7 mph 5.8 mph 71 % 0.00 in 0.0 W/m2 CLR
04:30 52.6 °F 43.5 °F 30.03 in NE 3.3 mph 5.8 mph 71 % 0.00 in 0.0 W/m2 CLR
04:35 52.6 °F 43.8 °F 30.03 in NNE 3.0 mph 5.8 mph 72 % 0.00 in 0.0 W/m2 CLR
04:40 52.5 °F 43.7 °F 30.03 in NE 3.9 mph 5.8 mph 72 % 0.00 in 0.0 W/m2 CLR
04:45 52.5 °F 44.1 °F 30.03 in ENE 5.4 mph 10.4 mph 73 % 0.00 in 0.0 W/m2 CLR
04:50 52.6 °F 44.2 °F 30.03 in NE 2.3 mph 4.6 mph 73 % 0.00 in 0.0 W/m2 CLR
04:55 52.5 °F 44.4 °F 30.03 in NE 1.6 mph 3.5 mph 74 % 0.00 in 0.0 W/m2 CLR
05:00 52.5 °F 44.4 °F 30.03 in NE 3.9 mph 5.8 mph 74 % 0.00 in 0.0 W/m2 CLR
05:05 52.5 °F 44.4 °F 30.03 in NE 3.7 mph 5.8 mph 74 % 0.00 in 0.0 W/m2 CLR
05:10 52.5 °F 44.4 °F 30.03 in NE 2.6 mph 3.5 mph 74 % 0.00 in 0.0 W/m2 CLR
05:15 52.5 °F 44.8 °F 30.03 in East 4.2 mph 4.6 mph 75 % 0.00 in 0.0 W/m2 CLR
05:20 52.5 °F 44.8 °F 30.03 in ENE 4.1 mph 5.8 mph 75 % 0.00 in 0.0 W/m2 CLR
05:25 52.5 °F 44.8 °F 30.03 in NE 3.9 mph 10.4 mph 75 % 0.00 in 0.0 W/m2 CLR
05:30 52.4 °F 45.1 °F 30.03 in NE 2.4 mph 4.6 mph 76 % 0.00 in 0.0 W/m2 CLR
05:35 52.4 °F 45.1 °F 30.03 in ENE 3.4 mph 10.4 mph 76 % 0.00 in 0.0 W/m2 CLR
05:40 52.4 °F 45.4 °F 30.03 in ENE 2.7 mph 3.5 mph 77 % 0.00 in 0.0 W/m2 CLR
05:45 52.4 °F 45.7 °F 30.03 in ENE 2.6 mph 6.9 mph 78 % 0.00 in 0.0 W/m2 CLR
05:50 52.3 °F 45.6 °F 30.03 in ENE 4.2 mph 5.8 mph 78 % 0.00 in 0.0 W/m2 CLR
05:55 52.2 °F 45.9 °F 30.03 in East 4.0 mph 5.8 mph 79 % 0.00 in 0.0 W/m2 CLR
06:00 52.1 °F 45.8 °F 30.03 in NE 1.6 mph 4.6 mph 79 % 0.00 in 0.0 W/m2 CLR
06:02 52.1 °F 46.1 °F 30.03 in NNE 3.0 mph 8.1 mph 80 % 0.00 in 0.0 W/m2 CLR
06:07 52.0 °F 46.0 °F 30.03 in ENE 9.7 mph 16.1 mph 80 % 0.00 in 0.0 W/m2 CLR
06:12 51.9 °F 45.9 °F 30.03 in NNE 5.4 mph 10.4 mph 80 % 0.00 in 0.0 W/m2 CLR
06:17 51.8 °F 46.2 °F 30.03 in NE 4.4 mph 6.9 mph 81 % 0.00 in 0.0 W/m2 CLR
06:22 51.7 °F 46.1 °F 30.03 in NE 6.5 mph 11.5 mph 81 % 0.00 in 0.0 W/m2 CLR
06:27 51.6 °F 46.0 °F 30.03 in NE 3.4 mph 5.8 mph 81 % 0.00 in 0.0 W/m2 CLR
06:32 51.5 °F 46.2 °F 30.04 in ENE 3.0 mph 9.2 mph 82 % 0.00 in 0.0 W/m2 CLR
06:37 51.4 °F 46.1 °F 30.04 in ENE 4.7 mph 7.0 mph 82 % 0.00 in 5.0 W/m2 CLR
06:42 51.4 °F 46.4 °F 30.04 in NNE 1.2 mph 6.9 mph 83 % 0.01 in 5.0 W/m2 RA
06:47 51.2 °F 46.2 °F 30.04 in NE 4.0 mph 10.4 mph 83 % 0.01 in 9.0 W/m2 RA
06:52 51.1 °F 46.4 °F 30.03 in NNE 6.7 mph 9.2 mph 84 % 0.01 in 12.0 W/m2
06:57 50.9 °F 46.2 °F 30.04 in NE 5.4 mph 11.5 mph 84 % 0.01 in 9.0 W/m2 OVC
07:02 50.8 °F 46.5 °F 30.04 in NNE 3.2 mph 7.0 mph 85 % 0.01 in 7.0 W/m2 OVC
07:07 50.7 °F 46.4 °F 30.04 in NNE 3.1 mph 8.1 mph 85 % 0.01 in 9.0 W/m2 OVC
07:12 50.6 °F 46.3 °F 30.05 in NNE 4.1 mph 7.0 mph 85 % 0.01 in 12.0 W/m2 OVC
07:17 50.6 °F 46.6 °F 30.05 in NE 1.9 mph 9.2 mph 86 % 0.01 in 14.0 W/m2 OVC
07:22 50.6 °F 46.6 °F 30.05 in NNE 2.8 mph 6.9 mph 86 % 0.01 in 16.0 W/m2 OVC
07:27 50.7 °F 46.7 °F 30.05 in NNE 0.1 mph 5.8 mph 86 % 0.01 in 18.0 W/m2 OVC
07:32 50.7 °F 46.7 °F 30.05 in NNE 1.6 mph 4.6 mph 86 % 0.01 in 18.0 W/m2 OVC
07:37 50.7 °F 46.7 °F 30.05 in NE 1.8 mph 4.6 mph 86 % 0.01 in 21.0 W/m2 OVC
07:42 50.8 °F 47.1 °F 30.05 in NE 5.4 mph 9.2 mph 87 % 0.00 in 23.0 W/m2 OVC
07:47 50.8 °F 46.8 °F 30.05 in NNE 2.8 mph 4.6 mph 86 % 0.00 in 28.0 W/m2 OVC
07:52 51.0 °F 47.3 °F 30.05 in NE 3.3 mph 10.4 mph 87 % 0.00 in 30.0 W/m2 OVC
07:57 51.0 °F 47.0 °F 30.05 in NE 2.1 mph 5.8 mph 86 % 0.00 in 33.0 W/m2 OVC
08:02 51.1 °F 47.1 °F 30.05 in NE 0.9 mph 3.5 mph 86 % 0.00 in 30.0 W/m2 OVC
08:07 51.2 °F 47.2 °F 30.06 in NNE 1.8 mph 3.5 mph 86 % 0.00 in 32.0 W/m2 OVC
08:12 51.3 °F 47.3 °F 30.06 in NE 4.4 mph 8.1 mph 86 % 0.00 in 42.0 W/m2 OVC
08:17 51.4 °F 47.4 °F 30.06 in NE 2.3 mph 4.6 mph 86 % 0.00 in 46.0 W/m2 OVC
08:22 51.4 °F 47.0 °F 30.06 in ENE 8.3 mph 9.2 mph 85 % 0.00 in 42.0 W/m2 OVC
08:27 51.5 °F 47.1 °F 30.05 in North 2.9 mph 5.8 mph 85 % 0.00 in 42.0 W/m2 OVC
08:32 51.6 °F 47.2 °F 30.05 in NE 2.2 mph 6.9 mph 85 % 0.00 in 49.0 W/m2 OVC
08:37 51.7 °F 47.3 °F 30.05 in NE 3.6 mph 4.6 mph 85 % 0.00 in 58.0 W/m2 OVC
08:42 51.8 °F 47.4 °F 30.05 in NE 3.3 mph 9.2 mph 85 % 0.00 in 62.0 W/m2 OVC
08:47 51.9 °F 47.5 °F 30.05 in ENE 4.5 mph 11.5 mph 85 % 0.00 in 65.0 W/m2 OVC
08:53 52.1 °F 47.7 °F 30.05 in NNE 4.1 mph 4.1 mph 85 % 0.00 in 69.0 W/m2 OVC
08:57 52.0 °F 47.6 °F 30.05 in NNE 6.9 mph 11.5 mph 85 % 0.00 in 77.0 W/m2 OVC
09:02 51.9 °F 47.2 °F 30.05 in NNE 5.1 mph 9.2 mph 84 % 0.00 in 76.0 W/m2 OVC
09:07 51.8 °F 47.1 °F 30.05 in NNE 4.8 mph 6.9 mph 84 % 0.00 in 83.0 W/m2 OVC
09:12 51.8 °F 47.1 °F 30.05 in NNE 6.4 mph 10.4 mph 84 % 0.00 in 84.0 W/m2 OVC
09:18 51.7 °F 47.0 °F 30.05 in NNE 6.7 mph 12.7 mph 84 % 0.00 in 105.0 W/m2 OVC
09:23 51.8 °F 47.1 °F 30.06 in NNE 5.6 mph 9.2 mph 84 % 0.00 in 104.0 W/m2 OVC
09:28 51.8 °F 47.1 °F 30.05 in NNE 6.1 mph 9.2 mph 84 % 0.00 in 93.0 W/m2 OVC
09:33 51.9 °F 47.2 °F 30.05 in NE 4.0 mph 4.6 mph 84 % 0.00 in 97.0 W/m2 OVC
09:35 51.9 °F 47.2 °F 30.05 in NE 2.6 mph 3.5 mph 84 % 0.00 in 113.0 W/m2 OVC
09:40 52.1 °F 47.7 °F 30.05 in NE 3.3 mph 5.8 mph 85 % 0.00 in 113.0 W/m2 OVC
09:45 52.2 °F 47.5 °F 30.05 in NNE 4.9 mph 9.2 mph 84 % 0.00 in 98.0 W/m2 OVC
09:50 52.1 °F 47.4 °F 30.05 in ENE 3.8 mph 7.0 mph 84 % 0.00 in 105.0 W/m2 OVC
09:55 52.2 °F 47.8 °F 30.04 in NE 4.0 mph 6.9 mph 85 % 0.00 in 86.0 W/m2 OVC
10:00 52.2 °F 47.8 °F 30.04 in NE 7.0 mph 11.5 mph 85 % 0.00 in 100.0 W/m2 OVC
10:05 52.2 °F 47.8 °F 30.04 in NNE 8.5 mph 16.1 mph 85 % 0.00 in 107.0 W/m2 OVC
10:10 52.5 °F 48.1 °F 30.04 in NE 3.5 mph 5.8 mph 85 % 0.00 in 97.0 W/m2 OVC
10:15 52.7 °F 48.3 °F 30.04 in ENE 5.1 mph 11.5 mph 85 % 0.00 in 93.0 W/m2 OVC
10:20 52.7 °F 48.3 °F 30.04 in NE 5.2 mph 11.5 mph 85 % 0.00 in 86.0 W/m2 OVC
10:25 52.8 °F 48.4 °F 30.04 in NE 3.3 mph 5.8 mph 85 % 0.00 in 120.0 W/m2 OVC
10:30 53.0 °F 48.6 °F 30.04 in ENE 6.4 mph 11.5 mph 85 % 0.00 in 76.0 W/m2 OVC
10:35 53.0 °F 48.6 °F 30.04 in NE 8.2 mph 12.7 mph 85 % 0.00 in 109.0 W/m2 OVC
10:40 53.0 °F 48.6 °F 30.04 in ENE 6.3 mph 11.5 mph 85 % 0.00 in 134.0 W/m2 OVC
10:45 53.2 °F 48.8 °F 30.04 in NNE 4.8 mph 12.7 mph 85 % 0.00 in 156.0 W/m2 OVC
10:50 53.3 °F 48.9 °F 30.03 in NE 7.3 mph 15.0 mph 85 % 0.00 in 160.0 W/m2 OVC
10:55 53.4 °F 49.3 °F 30.03 in ENE 6.5 mph 11.5 mph 86 % 0.00 in 248.0 W/m2 BKN
10:57 53.5 °F 49.4 °F 30.03 in NE 6.7 mph 11.5 mph 86 % 0.00 in 232.0 W/m2 BKN
11:02 53.7 °F 49.6 °F 30.03 in NE 3.4 mph 4.6 mph 86 % 0.00 in 206.0 W/m2 OVC
11:07 53.8 °F 49.7 °F 30.03 in East 6.1 mph 15.0 mph 86 % 0.00 in 241.0 W/m2 BKN
11:12 53.9 °F 49.8 °F 30.03 in NE 8.1 mph 13.8 mph 86 % 0.00 in 243.0 W/m2 BKN
11:13 53.9 °F 49.8 °F 30.03 in NE 6.9 mph 11.5 mph 86 % 0.00 in 199.0 W/m2 BKN
11:18 53.9 °F 49.8 °F 30.03 in NE 7.4 mph 13.0 mph 86 % 0.00 in 174.0 W/m2 OVC
11:23 53.9 °F 49.5 °F 30.03 in ENE 2.8 mph 5.0 mph 85 % 0.00 in 134.0 W/m2 OVC
11:28 53.9 °F 49.8 °F 30.03 in ENE 4.1 mph 6.9 mph 86 % 0.00 in 148.0 W/m2 OVC
11:33 53.9 °F 49.8 °F 30.03 in ENE 5.5 mph 11.5 mph 86 % 0.00 in 123.0 W/m2 OVC
11:38 53.9 °F 49.8 °F 30.03 in NNE 3.9 mph 8.1 mph 86 % 0.00 in 130.0 W/m2 OVC
11:43 53.9 °F 49.8 °F 30.02 in NE 7.9 mph 11.0 mph 86 % 0.00 in 137.0 W/m2 OVC
11:48 54.0 °F 49.9 °F 30.02 in ENE 2.6 mph 5.8 mph 86 % 0.00 in 135.0 W/m2 OVC
11:53 54.1 °F 50.0 °F 30.02 in NE 2.0 mph 5.0 mph 86 % 0.00 in 116.0 W/m2 OVC
11:58 54.2 °F 50.1 °F 30.02 in NE 4.1 mph 6.9 mph 86 % 0.00 in 134.0 W/m2 OVC
12:03 54.5 °F 50.4 °F 30.01 in NE 4.1 mph 11.5 mph 86 % 0.00 in 186.0 W/m2 OVC
12:05 54.5 °F 50.4 °F 30.01 in NNE 3.1 mph 10.0 mph 86 % 0.00 in 167.0 W/m2 OVC
12:10 54.7 °F 50.6 °F 30.01 in NE 1.4 mph 4.6 mph 86 % 0.00 in 193.0 W/m2 OVC
12:15 54.7 °F 50.3 °F 30.01 in NE 4.4 mph 10.4 mph 85 % 0.00 in 207.0 W/m2 OVC
12:20 54.6 °F 50.2 °F 30.00 in NE 2.8 mph 8.1 mph 85 % 0.00 in 174.0 W/m2 OVC
12:25 54.5 °F 50.1 °F 30.00 in ENE 3.5 mph 10.4 mph 85 % 0.00 in 174.0 W/m2 OVC
12:30 54.6 °F 50.5 °F 30.00 in NNE 5.3 mph 12.0 mph 86 % 0.00 in 185.0 W/m2 OVC
12:35 54.7 °F 50.3 °F 30.00 in NE 5.1 mph 12.7 mph 85 % 0.00 in 153.0 W/m2 OVC
12:40 55.0 °F 50.9 °F 30.00 in NE 6.6 mph 11.5 mph 86 % 0.00 in 146.0 W/m2 OVC
12:45 55.0 °F 50.6 °F 29.99 in NE 2.8 mph 5.8 mph 85 % 0.00 in 102.0 W/m2 OVC
12:46 55.0 °F 50.6 °F 29.99 in NE 1.2 mph 3.5 mph 85 % 0.00 in 111.0 W/m2 OVC
12:51 55.1 °F 50.7 °F 29.99 in NE 1.8 mph 5.8 mph 85 % 0.00 in 104.0 W/m2 OVC
12:56 55.3 °F 50.9 °F 29.99 in NE 4.0 mph 11.0 mph 85 % 0.00 in 104.0 W/m2 OVC
13:01 55.5 °F 51.1 °F 29.98 in NE 6.0 mph 11.5 mph 85 % 0.00 in 100.0 W/m2 OVC
13:06 55.6 °F 51.2 °F 29.98 in ENE 3.6 mph 10.4 mph 85 % 0.00 in 114.0 W/m2 OVC
13:11 55.9 °F 51.5 °F 29.98 in NNE 4.8 mph 11.5 mph 85 % 0.00 in 146.0 W/m2 OVC
13:16 56.2 °F 51.7 °F 29.98 in NE 3.4 mph 11.5 mph 85 % 0.00 in 225.0 W/m2 OVC
13:21 56.2 °F 51.7 °F 29.98 in NE 6.6 mph 11.5 mph 85 % 0.00 in 146.0 W/m2 OVC
13:26 56.2 °F 51.7 °F 29.97 in ENE 1.9 mph 10.4 mph 85 % 0.00 in 151.0 W/m2 OVC
13:31 56.4 °F 51.9 °F 29.97 in NNE 7.9 mph 13.0 mph 85 % 0.00 in 167.0 W/m2 OVC
13:36 56.4 °F 51.9 °F 29.97 in NE 6.9 mph 11.5 mph 85 % 0.00 in 146.0 W/m2 OVC
13:41 56.4 °F 51.9 °F 29.97 in NE 6.1 mph 11.5 mph 85 % 0.00 in 123.0 W/m2 OVC
13:46 56.5 °F 52.0 °F 29.97 in NE 4.8 mph 6.0 mph 85 % 0.00 in 98.0 W/m2 OVC
13:51 56.3 °F 51.8 °F 29.97 in NE 7.4 mph 11.5 mph 85 % 0.00 in 58.0 W/m2 OVC
13:56 56.1 °F 52.0 °F 29.97 in NNE 3.3 mph 9.2 mph 86 % 0.00 in 70.0 W/m2 OVC
14:01 56.0 °F 51.9 °F 29.96 in NE 4.0 mph 11.5 mph 86 % 0.00 in 97.0 W/m2 OVC
14:07 55.8 °F 52.0 °F 29.96 in NE 0.5 mph 9.2 mph 87 % 0.00 in 93.0 W/m2 OVC
14:12 55.8 °F 52.0 °F 29.95 in NNE 6.9 mph 6.9 mph 87 % 0.00 in 91.0 W/m2 OVC
14:17 55.7 °F 51.9 °F 29.95 in ENE 4.7 mph 9.2 mph 87 % 0.00 in 118.0 W/m2 OVC
14:22 55.7 °F 52.2 °F 29.94 in ENE 3.3 mph 10.0 mph 88 % 0.00 in 93.0 W/m2 OVC
14:27 55.7 °F 52.2 °F 29.94 in ENE 4.5 mph 10.4 mph 88 % 0.00 in 100.0 W/m2 OVC
14:32 55.8 °F 52.3 °F 29.94 in NE 2.9 mph 7.0 mph 88 % 0.00 in 84.0 W/m2 OVC
14:37 55.9 °F 52.4 °F 29.94 in ENE 4.8 mph 10.4 mph 88 % 0.00 in 74.0 W/m2 OVC
14:42 56.0 °F 52.5 °F 29.94 in ENE 3.6 mph 6.9 mph 88 % 0.00 in 65.0 W/m2 OVC
14:47 56.2 °F 52.7 °F 29.94 in NE 1.5 mph 8.1 mph 88 % 0.00 in 69.0 W/m2 OVC
14:52 56.2 °F 52.4 °F 29.94 in NE 1.7 mph 4.6 mph 87 % 0.00 in 62.0 W/m2 OVC
14:57 56.3 °F 52.5 °F 29.94 in East 4.1 mph 8.0 mph 87 % 0.00 in 56.0 W/m2 OVC
15:02 56.3 °F 52.5 °F 29.93 in ENE 3.0 mph 9.2 mph 87 % 0.00 in 70.0 W/m2 OVC
15:07 56.4 °F 52.6 °F 29.93 in NE 3.9 mph 10.4 mph 87 % 0.00 in 72.0 W/m2 OVC
15:12 56.4 °F 52.6 °F 29.92 in NE 3.2 mph 11.5 mph 87 % 0.00 in 69.0 W/m2 OVC
15:17 56.4 °F 52.6 °F 29.92 in NNE 5.9 mph 11.5 mph 87 % 0.00 in 81.0 W/m2 OVC
15:22 56.5 °F 52.7 °F 29.92 in NE 2.2 mph 10.4 mph 87 % 0.00 in 88.0 W/m2 OVC
15:27 56.4 °F 52.9 °F 29.92 in NE 4.2 mph 11.5 mph 88 % 0.00 in 69.0 W/m2 OVC
15:32 56.3 °F 52.8 °F 29.91 in NNE 0.5 mph 6.9 mph 88 % 0.00 in 86.0 W/m2 OVC
15:37 56.2 °F 52.7 °F 29.91 in NE 2.7 mph 4.6 mph 88 % 0.00 in 72.0 W/m2 OVC
15:42 56.2 °F 53.0 °F 29.91 in NE 1.3 mph 2.0 mph 89 % 0.01 in 70.0 W/m2 RA
15:47 56.1 °F 52.9 °F 29.90 in NE 3.6 mph 4.0 mph 89 % 0.01 in 65.0 W/m2 RA
15:52 56.0 °F 53.1 °F 29.90 in NE 4.4 mph 4.4 mph 90 % 0.01 in 46.0 W/m2 OVC
15:58 55.9 °F 53.0 °F 29.90 in NE 3.6 mph 4.6 mph 90 % 0.01 in 44.0 W/m2 OVC
16:03 55.7 °F 52.8 °F 29.90 in NNE 3.8 mph 11.5 mph 90 % 0.01 in 47.0 W/m2 OVC
16:08 55.6 °F 52.7 °F 29.90 in NNE 2.5 mph 5.0 mph 90 % 0.01 in 40.0 W/m2 OVC
16:13 55.3 °F 52.4 °F 29.90 in NNE 4.7 mph 9.2 mph 90 % 0.02 in 32.0 W/m2 RA
16:18 55.1 °F 52.2 °F 29.90 in NE 7.3 mph 12.7 mph 90 % 0.02 in 40.0 W/m2 RA
16:23 54.9 °F 52.3 °F 29.90 in NNE 2.7 mph 6.0 mph 91 % 0.02 in 33.0 W/m2 OVC
16:28 54.7 °F 52.1 °F 29.90 in NE 3.1 mph 6.9 mph 91 % 0.03 in 33.0 W/m2 RA
16:33 54.6 °F 52.0 °F 29.89 in North 6.9 mph 11.0 mph 91 % 0.03 in 39.0 W/m2 RA
16:38 54.6 °F 52.0 °F 29.89 in NNE 3.7 mph 6.9 mph 91 % 0.04 in 44.0 W/m2 RA
16:41 54.6 °F 52.0 °F 29.89 in NNE 7.3 mph 11.5 mph 91 % 0.04 in 44.0 W/m2 RA
16:46 54.5 °F 51.9 °F 29.89 in NE 6.8 mph 11.5 mph 91 % 0.04 in 44.0 W/m2 RA
16:48 54.5 °F 51.9 °F 29.89 in NE 4.5 mph 9.2 mph 91 % 0.04 in 47.0 W/m2 RA
16:53 54.4 °F 52.1 °F 29.88 in NNE 9.3 mph 13.8 mph 92 % 0.04 in 47.0 W/m2 OVC
16:58 54.3 °F 52.0 °F 29.88 in NNE 9.3 mph 11.5 mph 92 % 0.05 in 42.0 W/m2 RA
17:03 54.2 °F 51.9 °F 29.87 in NNE 7.9 mph 12.7 mph 92 % 0.06 in 42.0 W/m2 RA
17:08 54.2 °F 51.9 °F 29.88 in NE 5.4 mph 9.2 mph 92 % 0.07 in 39.0 W/m2 RA
17:13 54.2 °F 51.9 °F 29.87 in NE 7.3 mph 11.5 mph 92 % 0.06 in 40.0 W/m2 RA
17:18 54.2 °F 51.9 °F 29.87 in NE 7.5 mph 11.5 mph 92 % 0.06 in 35.0 W/m2 OVC
17:23 54.2 °F 51.9 °F 29.87 in NE 2.3 mph 5.8 mph 92 % 0.07 in 40.0 W/m2 RA
17:28 54.3 °F 52.0 °F 29.87 in NNE 4.1 mph 9.2 mph 92 % 0.06 in 30.0 W/m2 RA
17:33 54.4 °F 52.1 °F 29.87 in NE 4.4 mph 10.4 mph 92 % 0.06 in 23.0 W/m2 OVC
17:38 54.3 °F 52.0 °F 29.87 in NE 3.4 mph 8.1 mph 92 % 0.05 in 21.0 W/m2 OVC
17:43 54.3 °F 52.0 °F 29.87 in NE 6.7 mph 12.7 mph 92 % 0.04 in 26.0 W/m2 OVC
17:48 54.3 °F 52.3 °F 29.87 in NE 5.1 mph 12.7 mph 93 % 0.04 in 21.0 W/m2 OVC
17:53 54.3 °F 52.3 °F 29.87 in NNE 3.6 mph 15.0 mph 93 % 0.04 in 26.0 W/m2 OVC
17:58 54.4 °F 52.4 °F 29.87 in NE 3.3 mph 5.8 mph 93 % 0.03 in 25.0 W/m2 OVC
18:03 54.4 °F 52.4 °F 29.88 in NE 3.6 mph 9.2 mph 93 % 0.03 in 25.0 W/m2 RA
18:08 54.4 °F 52.4 °F 29.87 in ENE 4.0 mph 10.4 mph 93 % 0.03 in 26.0 W/m2 RA
18:13 54.4 °F 52.4 °F 29.87 in NNE 3.4 mph 8.1 mph 93 % 0.03 in 32.0 W/m2 RA
18:18 54.4 °F 52.4 °F 29.87 in NE 3.8 mph 5.8 mph 93 % 0.06 in 32.0 W/m2 RA
18:23 54.4 °F 52.4 °F 29.87 in NNE 3.9 mph 6.9 mph 93 % 0.07 in 23.0 W/m2 RA
18:28 54.4 °F 52.4 °F 29.87 in NNE 6.0 mph 12.7 mph 93 % 0.08 in 26.0 W/m2 RA
18:33 54.4 °F 52.4 °F 29.87 in NE 0.4 mph 4.0 mph 93 % 0.08 in 23.0 W/m2 RA
18:38 54.4 °F 52.4 °F 29.87 in NE 2.9 mph 6.0 mph 93 % 0.08 in 16.0 W/m2
18:43 54.4 °F 52.4 °F 29.86 in ENE 5.6 mph 8.1 mph 93 % 0.08 in 16.0 W/m2 OVC
18:48 54.4 °F 52.4 °F 29.86 in NE 8.1 mph 10.0 mph 93 % 0.09 in 12.0 W/m2 RA
18:53 54.4 °F 52.4 °F 29.86 in NE 5.3 mph 9.2 mph 93 % 0.09 in 12.0 W/m2 RA
18:58 54.4 °F 52.4 °F 29.86 in NNE 3.5 mph 9.2 mph 93 % 0.09 in 11.0 W/m2
19:03 54.4 °F 52.7 °F 29.87 in NNE 2.3 mph 8.1 mph 94 % 0.09 in 11.0 W/m2 RA
19:08 54.5 °F 52.8 °F 29.86 in NNE 2.1 mph 8.1 mph 94 % 0.08 in 7.0 W/m2 RA
19:13 54.5 °F 52.5 °F 29.87 in NE 1.8 mph 3.5 mph 93 % 0.08 in 5.0 W/m2
19:18 54.5 °F 52.8 °F 29.86 in NE 4.8 mph 11.5 mph 94 % 0.05 in 7.0 W/m2 OVC
19:24 54.5 °F 52.8 °F 29.86 in NE 3.1 mph 6.0 mph 94 % 0.03 in 5.0 W/m2 OVC
19:29 54.5 °F 52.8 °F 29.86 in NNE 2.3 mph 4.0 mph 94 % 0.03 in 0.0 W/m2 RA
19:34 54.5 °F 52.8 °F 29.87 in NE 4.5 mph 4.6 mph 94 % 0.03 in 0.0 W/m2 RA
19:39 54.6 °F 52.9 °F 29.86 in NE 3.8 mph 5.8 mph 94 % 0.03 in 0.0 W/m2
19:44 54.5 °F 52.8 °F 29.86 in NNE 3.9 mph 6.9 mph 94 % 0.03 in 0.0 W/m2 OVC
19:49 54.5 °F 52.8 °F 29.86 in NNE 2.7 mph 5.0 mph 94 % 0.02 in 0.0 W/m2 CLR
19:54 54.4 °F 52.7 °F 29.86 in NE 1.1 mph 3.5 mph 94 % 0.02 in 0.0 W/m2 CLR
19:59 54.4 °F 52.7 °F 29.85 in NE 3.1 mph 3.5 mph 94 % 0.02 in 0.0 W/m2 CLR
20:04 54.4 °F 52.7 °F 29.85 in NE 1.0 mph 4.6 mph 94 % 0.02 in 0.0 W/m2 RA
20:09 54.4 °F 52.7 °F 29.85 in NE 3.2 mph 5.8 mph 94 % 0.02 in 0.0 W/m2 RA
20:14 54.4 °F 52.7 °F 29.85 in NE 5.2 mph 9.2 mph 94 % 0.02 in 0.0 W/m2
20:19 54.3 °F 52.6 °F 29.85 in NE 5.2 mph 9.2 mph 94 % 0.02 in 0.0 W/m2
20:24 54.3 °F 52.6 °F 29.85 in NNE 4.5 mph 13.8 mph 94 % 0.01 in 0.0 W/m2
20:29 54.2 °F 52.5 °F 29.85 in NE 2.3 mph 5.8 mph 94 % 0.01 in 0.0 W/m2
20:34 54.3 °F 52.6 °F 29.85 in NE 4.0 mph 9.2 mph 94 % 0.01 in 0.0 W/m2
20:39 54.2 °F 52.5 °F 29.85 in NE 6.4 mph 10.4 mph 94 % 0.01 in 0.0 W/m2
20:44 54.2 °F 52.5 °F 29.85 in NE 2.9 mph 5.8 mph 94 % 0.02 in 0.0 W/m2 RA
20:49 54.2 °F 52.5 °F 29.85 in NNE 4.2 mph 8.1 mph 94 % 0.02 in 0.0 W/m2 RA
20:54 54.2 °F 52.5 °F 29.85 in NE 5.3 mph 9.2 mph 94 % 0.02 in 0.0 W/m2
20:59 54.1 °F 52.4 °F 29.85 in NE 4.2 mph 9.2 mph 94 % 0.02 in 0.0 W/m2
21:04 54.1 °F 52.4 °F 29.85 in NE 4.6 mph 7.0 mph 94 % 0.02 in 0.0 W/m2 RA
21:09 54.1 °F 52.4 °F 29.85 in NNE 4.1 mph 10.0 mph 94 % 0.02 in 0.0 W/m2 RA
21:14 54.0 °F 52.3 °F 29.85 in NE 3.2 mph 6.9 mph 94 % 0.02 in 0.0 W/m2
21:19 54.1 °F 52.4 °F 29.85 in ENE 2.2 mph 5.8 mph 94 % 0.02 in 0.0 W/m2
21:24 54.0 °F 52.3 °F 29.85 in NNE 2.1 mph 4.6 mph 94 % 0.02 in 0.0 W/m2
21:29 54.0 °F 52.3 °F 29.85 in NNE 3.8 mph 10.0 mph 94 % 0.02 in 0.0 W/m2
21:34 54.0 °F 52.3 °F 29.85 in NE 4.2 mph 7.0 mph 94 % 0.02 in 0.0 W/m2
21:39 54.0 °F 52.3 °F 29.85 in NNE 4.4 mph 6.9 mph 94 % 0.02 in 0.0 W/m2
21:44 54.0 °F 52.3 °F 29.85 in NE 5.6 mph 9.0 mph 94 % 0.01 in 0.0 W/m2
21:49 54.0 °F 52.3 °F 29.85 in NE 4.6 mph 8.1 mph 94 % 0.01 in 0.0 W/m2
21:54 53.9 °F 52.2 °F 29.85 in NE 2.2 mph 5.0 mph 94 % 0.01 in 0.0 W/m2
21:59 53.9 °F 52.2 °F 29.85 in NE 4.1 mph 9.2 mph 94 % 0.01 in 0.0 W/m2
22:04 53.9 °F 52.2 °F 29.84 in NE 2.2 mph 8.1 mph 94 % 0.01 in 0.0 W/m2 RA
22:09 53.8 °F 52.1 °F 29.85 in NNE 2.8 mph 4.0 mph 94 % 0.01 in 0.0 W/m2 RA
22:14 53.8 °F 52.1 °F 29.84 in NNE 4.9 mph 5.8 mph 94 % 0.01 in 0.0 W/m2
22:20 53.8 °F 52.1 °F 29.84 in NE 1.8 mph 6.9 mph 94 % 0.01 in 0.0 W/m2
22:25 53.8 °F 52.1 °F 29.84 in NNE 2.0 mph 10.0 mph 94 % 0.00 in 0.0 W/m2
22:30 53.7 °F 52.0 °F 29.84 in NNE 4.6 mph 8.1 mph 94 % 0.01 in 0.0 W/m2
22:35 53.7 °F 52.0 °F 29.84 in NNE 5.0 mph 10.0 mph 94 % 0.00 in 0.0 W/m2
22:40 53.7 °F 52.0 °F 29.84 in NE 3.0 mph 9.0 mph 94 % 0.00 in 0.0 W/m2
22:45 53.6 °F 51.9 °F 29.84 in NE 3.8 mph 10.4 mph 94 % 0.01 in 0.0 W/m2
22:50 53.5 °F 51.8 °F 29.85 in NNE 4.7 mph 5.8 mph 94 % 0.01 in 0.0 W/m2
22:55 53.5 °F 51.8 °F 29.84 in NE 3.8 mph 5.8 mph 94 % 0.01 in 0.0 W/m2
23:00 53.4 °F 51.7 °F 29.84 in NE 5.8 mph 5.8 mph 94 % 0.01 in 0.0 W/m2
23:05 53.3 °F 51.7 °F 29.84 in NE 5.0 mph 10.0 mph 94 % 0.01 in 0.0 W/m2 RA
23:10 53.3 °F 51.9 °F 29.84 in NE 1.0 mph 9.0 mph 95 % 0.01 in 0.0 W/m2 RA
23:15 53.2 °F 51.5 °F 29.84 in NNE 2.7 mph 4.0 mph 94 % 0.01 in 0.0 W/m2
23:20 53.1 °F 51.7 °F 29.84 in NE 6.0 mph 12.0 mph 95 % 0.00 in 0.0 W/m2
23:25 53.1 °F 51.4 °F 29.84 in NNE 6.0 mph 10.0 mph 94 % 0.00 in 0.0 W/m2
23:30 53.0 °F 51.3 °F 29.83 in NNE 3.6 mph 11.5 mph 94 % 0.01 in 0.0 W/m2
23:35 53.0 °F 51.3 °F 29.83 in NE 3.0 mph 12.0 mph 94 % 0.00 in 0.0 W/m2
23:40 53.0 °F 51.3 °F 29.83 in NE 5.7 mph 13.8 mph 94 % 0.01 in 0.0 W/m2
23:45 52.9 °F 51.2 °F 29.83 in NNE 2.8 mph 3.5 mph 94 % 0.01 in 0.0 W/m2
23:50 52.9 °F 51.2 °F 29.83 in NE 5.6 mph 5.6 mph 94 % 0.02 in 0.0 W/m2 RA
23:55 52.9 °F 51.5 °F 29.82 in NE 4.3 mph 4.6 mph 95 % 0.02 in 0.0 W/m2 RA
Air Products Campus Weather
Compliments of Weather Underground - 3.5 mb